sensor_id;sensor_type;location;lat;lon;timestamp;P1;durP1;ratioP1;P2;durP2;ratioP2
66619;SDS011;53484;51.356;6.732;2022-12-20T00:01:21;6.00;;;2.60;;
66619;SDS011;53484;51.356;6.732;2022-12-20T00:03:48;6.57;;;2.30;;
66619;SDS011;53484;51.356;6.732;2022-12-20T00:06:15;6.93;;;2.65;;
66619;SDS011;53484;51.356;6.732;2022-12-20T00:08:41;6.45;;;2.17;;
66619;SDS011;53484;51.356;6.732;2022-12-20T00:11:10;5.93;;;2.95;;
66619;SDS011;53484;51.356;6.732;2022-12-20T00:13:37;7.15;;;2.30;;
66619;SDS011;53484;51.356;6.732;2022-12-20T00:16:04;8.40;;;2.60;;
66619;SDS011;53484;51.356;6.732;2022-12-20T00:18:31;7.00;;;2.35;;
66619;SDS011;53484;51.356;6.732;2022-12-20T00:20:57;8.07;;;2.40;;
66619;SDS011;53484;51.356;6.732;2022-12-20T00:23:23;6.57;;;2.33;;
66619;SDS011;53484;51.356;6.732;2022-12-20T00:25:50;5.75;;;2.33;;
66619;SDS011;53484;51.356;6.732;2022-12-20T00:28:17;6.27;;;2.37;;
66619;SDS011;53484;51.356;6.732;2022-12-20T00:30:44;5.88;;;2.10;;
66619;SDS011;53484;51.356;6.732;2022-12-20T00:33:10;4.82;;;1.95;;
66619;SDS011;53484;51.356;6.732;2022-12-20T00:35:40;7.00;;;2.47;;
66619;SDS011;53484;51.356;6.732;2022-12-20T00:38:06;4.63;;;2.25;;
66619;SDS011;53484;51.356;6.732;2022-12-20T00:40:33;6.17;;;1.90;;
66619;SDS011;53484;51.356;6.732;2022-12-20T00:42:59;6.38;;;2.05;;
66619;SDS011;53484;51.356;6.732;2022-12-20T00:45:26;6.72;;;2.30;;
66619;SDS011;53484;51.356;6.732;2022-12-20T00:47:53;7.50;;;2.33;;
66619;SDS011;53484;51.356;6.732;2022-12-20T00:50:19;7.90;;;2.50;;
66619;SDS011;53484;51.356;6.732;2022-12-20T00:52:45;6.13;;;2.23;;
66619;SDS011;53484;51.356;6.732;2022-12-20T00:55:11;5.65;;;2.20;;
66619;SDS011;53484;51.356;6.732;2022-12-20T00:57:38;6.95;;;2.30;;
66619;SDS011;53484;51.356;6.732;2022-12-20T01:00:05;5.28;;;2.08;;
66619;SDS011;53484;51.356;6.732;2022-12-20T01:02:33;5.88;;;2.00;;
66619;SDS011;53484;51.356;6.732;2022-12-20T01:04:59;4.97;;;2.10;;
66619;SDS011;53484;51.356;6.732;2022-12-20T01:07:25;6.50;;;2.33;;
66619;SDS011;53484;51.356;6.732;2022-12-20T01:09:51;5.25;;;2.00;;
66619;SDS011;53484;51.356;6.732;2022-12-20T01:12:18;5.90;;;2.10;;
66619;SDS011;53484;51.356;6.732;2022-12-20T01:14:44;6.55;;;2.15;;
66619;SDS011;53484;51.356;6.732;2022-12-20T01:17:10;4.63;;;1.50;;
66619;SDS011;53484;51.356;6.732;2022-12-20T01:19:38;4.70;;;1.75;;
66619;SDS011;53484;51.356;6.732;2022-12-20T01:22:05;5.55;;;1.80;;
66619;SDS011;53484;51.356;6.732;2022-12-20T01:24:31;5.15;;;1.80;;
66619;SDS011;53484;51.356;6.732;2022-12-20T01:26:57;5.93;;;1.90;;
66619;SDS011;53484;51.356;6.732;2022-12-20T01:29:24;4.73;;;1.97;;
66619;SDS011;53484;51.356;6.732;2022-12-20T01:31:50;6.50;;;1.73;;
66619;SDS011;53484;51.356;6.732;2022-12-20T01:34:17;5.20;;;1.80;;
66619;SDS011;53484;51.356;6.732;2022-12-20T01:36:45;6.60;;;1.83;;
66619;SDS011;53484;51.356;6.732;2022-12-20T01:39:14;5.70;;;1.90;;
66619;SDS011;53484;51.356;6.732;2022-12-20T01:41:41;4.90;;;2.10;;
66619;SDS011;53484;51.356;6.732;2022-12-20T01:46:49;4.90;;;1.85;;
66619;SDS011;53484;51.356;6.732;2022-12-20T01:49:16;5.25;;;2.13;;
66619;SDS011;53484;51.356;6.732;2022-12-20T01:51:44;5.82;;;2.05;;
66619;SDS011;53484;51.356;6.732;2022-12-20T01:54:12;4.63;;;1.87;;
66619;SDS011;53484;51.356;6.732;2022-12-20T01:56:39;4.25;;;1.63;;
66619;SDS011;53484;51.356;6.732;2022-12-20T01:59:06;5.53;;;2.03;;
66619;SDS011;53484;51.356;6.732;2022-12-20T02:01:33;6.30;;;2.40;;
66619;SDS011;53484;51.356;6.732;2022-12-20T02:03:59;6.22;;;1.80;;
66619;SDS011;53484;51.356;6.732;2022-12-20T02:06:25;5.90;;;2.73;;
66619;SDS011;53484;51.356;6.732;2022-12-20T02:08:52;3.72;;;1.70;;
66619;SDS011;53484;51.356;6.732;2022-12-20T02:11:31;5.28;;;2.33;;
66619;SDS011;53484;51.356;6.732;2022-12-20T02:14:00;4.47;;;1.90;;
66619;SDS011;53484;51.356;6.732;2022-12-20T02:16:31;5.90;;;1.98;;
66619;SDS011;53484;51.356;6.732;2022-12-20T02:19:01;5.70;;;2.07;;
66619;SDS011;53484;51.356;6.732;2022-12-20T02:21:32;4.28;;;1.85;;
66619;SDS011;53484;51.356;6.732;2022-12-20T02:24:24;6.30;;;2.50;;
66619;SDS011;53484;51.356;6.732;2022-12-20T02:27:08;10.15;;;2.10;;
66619;SDS011;53484;51.356;6.732;2022-12-20T02:29:37;4.00;;;1.90;;
66619;SDS011;53484;51.356;6.732;2022-12-20T02:32:07;5.50;;;2.00;;
66619;SDS011;53484;51.356;6.732;2022-12-20T02:34:37;4.57;;;1.98;;
66619;SDS011;53484;51.356;6.732;2022-12-20T02:37:04;6.03;;;2.28;;
66619;SDS011;53484;51.356;6.732;2022-12-20T02:39:31;6.50;;;2.15;;
66619;SDS011;53484;51.356;6.732;2022-12-20T02:42:00;4.20;;;2.00;;
66619;SDS011;53484;51.356;6.732;2022-12-20T02:44:27;4.30;;;2.40;;
66619;SDS011;53484;51.356;6.732;2022-12-20T02:47:16;5.40;;;2.00;;
66619;SDS011;53484;51.356;6.732;2022-12-20T02:49:44;5.65;;;2.30;;
66619;SDS011;53484;51.356;6.732;2022-12-20T02:52:11;6.15;;;2.10;;
66619;SDS011;53484;51.356;6.732;2022-12-20T02:54:38;5.40;;;2.40;;
66619;SDS011;53484;51.356;6.732;2022-12-20T02:57:08;5.87;;;2.37;;
66619;SDS011;53484;51.356;6.732;2022-12-20T02:59:36;4.75;;;2.15;;
66619;SDS011;53484;51.356;6.732;2022-12-20T03:02:05;8.15;;;2.83;;
66619;SDS011;53484;51.356;6.732;2022-12-20T03:04:33;8.07;;;3.03;;
66619;SDS011;53484;51.356;6.732;2022-12-20T03:07:02;6.25;;;2.83;;
66619;SDS011;53484;51.356;6.732;2022-12-20T03:09:29;5.37;;;2.60;;
66619;SDS011;53484;51.356;6.732;2022-12-20T03:11:56;7.47;;;2.78;;
66619;SDS011;53484;51.356;6.732;2022-12-20T03:14:22;7.70;;;3.13;;
66619;SDS011;53484;51.356;6.732;2022-12-20T03:16:48;7.07;;;2.90;;
66619;SDS011;53484;51.356;6.732;2022-12-20T03:19:15;7.82;;;3.00;;
66619;SDS011;53484;51.356;6.732;2022-12-20T03:21:42;7.27;;;3.13;;
66619;SDS011;53484;51.356;6.732;2022-12-20T03:24:09;6.82;;;3.42;;
66619;SDS011;53484;51.356;6.732;2022-12-20T03:26:37;7.72;;;3.67;;
66619;SDS011;53484;51.356;6.732;2022-12-20T03:29:03;7.18;;;3.60;;
66619;SDS011;53484;51.356;6.732;2022-12-20T03:31:30;9.23;;;3.92;;
66619;SDS011;53484;51.356;6.732;2022-12-20T03:33:56;8.27;;;3.67;;
66619;SDS011;53484;51.356;6.732;2022-12-20T03:36:22;10.77;;;4.25;;
66619;SDS011;53484;51.356;6.732;2022-12-20T03:38:50;9.65;;;4.38;;
66619;SDS011;53484;51.356;6.732;2022-12-20T03:41:17;10.15;;;4.20;;
66619;SDS011;53484;51.356;6.732;2022-12-20T03:43:44;9.82;;;4.50;;
66619;SDS011;53484;51.356;6.732;2022-12-20T03:46:10;9.20;;;4.23;;
66619;SDS011;53484;51.356;6.732;2022-12-20T03:48:36;8.55;;;4.55;;
66619;SDS011;53484;51.356;6.732;2022-12-20T03:51:03;9.73;;;4.47;;
66619;SDS011;53484;51.356;6.732;2022-12-20T03:53:29;8.63;;;4.60;;
66619;SDS011;53484;51.356;6.732;2022-12-20T03:55:57;13.68;;;4.80;;
66619;SDS011;53484;51.356;6.732;2022-12-20T03:58:23;8.57;;;4.70;;
66619;SDS011;53484;51.356;6.732;2022-12-20T04:00:49;8.25;;;4.53;;
66619;SDS011;53484;51.356;6.732;2022-12-20T04:03:15;8.65;;;4.50;;
66619;SDS011;53484;51.356;6.732;2022-12-20T04:05:42;11.82;;;5.80;;
66619;SDS011;53484;51.356;6.732;2022-12-20T04:08:08;10.43;;;5.10;;
66619;SDS011;53484;51.356;6.732;2022-12-20T04:10:34;7.57;;;4.50;;
66619;SDS011;53484;51.356;6.732;2022-12-20T04:13:22;10.07;;;4.80;;
66619;SDS011;53484;51.356;6.732;2022-12-20T04:15:48;8.02;;;4.50;;
66619;SDS011;53484;51.356;6.732;2022-12-20T04:18:15;10.27;;;4.70;;
66619;SDS011;53484;51.356;6.732;2022-12-20T04:20:41;9.07;;;4.82;;
66619;SDS011;53484;51.356;6.732;2022-12-20T04:23:07;9.83;;;4.63;;
66619;SDS011;53484;51.356;6.732;2022-12-20T04:25:34;8.38;;;4.70;;
66619;SDS011;53484;51.356;6.732;2022-12-20T04:28:00;12.55;;;5.20;;
66619;SDS011;53484;51.356;6.732;2022-12-20T04:30:27;11.27;;;5.63;;
66619;SDS011;53484;51.356;6.732;2022-12-20T04:32:54;11.40;;;5.80;;
66619;SDS011;53484;51.356;6.732;2022-12-20T04:35:20;9.80;;;5.20;;
66619;SDS011;53484;51.356;6.732;2022-12-20T04:37:46;11.65;;;5.75;;
66619;SDS011;53484;51.356;6.732;2022-12-20T04:40:13;11.65;;;5.88;;
66619;SDS011;53484;51.356;6.732;2022-12-20T04:42:39;13.27;;;5.53;;
66619;SDS011;53484;51.356;6.732;2022-12-20T04:45:05;11.45;;;5.45;;
66619;SDS011;53484;51.356;6.732;2022-12-20T04:47:33;10.70;;;5.53;;
66619;SDS011;53484;51.356;6.732;2022-12-20T04:49:59;11.02;;;5.28;;
66619;SDS011;53484;51.356;6.732;2022-12-20T04:52:26;14.75;;;5.75;;
66619;SDS011;53484;51.356;6.732;2022-12-20T04:55:10;10.60;;;5.72;;
66619;SDS011;53484;51.356;6.732;2022-12-20T04:57:36;9.90;;;5.20;;
66619;SDS011;53484;51.356;6.732;2022-12-20T05:00:02;12.03;;;5.67;;
66619;SDS011;53484;51.356;6.732;2022-12-20T05:02:29;14.65;;;6.18;;
66619;SDS011;53484;51.356;6.732;2022-12-20T05:04:56;12.75;;;5.80;;
66619;SDS011;53484;51.356;6.732;2022-12-20T05:07:23;10.80;;;5.28;;
66619;SDS011;53484;51.356;6.732;2022-12-20T05:09:49;12.57;;;5.75;;
66619;SDS011;53484;51.356;6.732;2022-12-20T05:12:16;10.97;;;5.10;;
66619;SDS011;53484;51.356;6.732;2022-12-20T05:14:42;13.40;;;6.03;;
66619;SDS011;53484;51.356;6.732;2022-12-20T05:17:08;11.10;;;5.80;;
66619;SDS011;53484;51.356;6.732;2022-12-20T05:19:34;13.27;;;6.75;;
66619;SDS011;53484;51.356;6.732;2022-12-20T05:22:02;11.60;;;5.88;;
66619;SDS011;53484;51.356;6.732;2022-12-20T05:24:46;10.70;;;5.60;;
66619;SDS011;53484;51.356;6.732;2022-12-20T05:27:29;16.17;;;6.30;;
66619;SDS011;53484;51.356;6.732;2022-12-20T05:29:55;11.93;;;6.22;;
66619;SDS011;53484;51.356;6.732;2022-12-20T05:32:22;12.20;;;6.18;;
66619;SDS011;53484;51.356;6.732;2022-12-20T05:34:48;10.15;;;5.47;;
66619;SDS011;53484;51.356;6.732;2022-12-20T05:37:15;11.87;;;5.93;;
66619;SDS011;53484;51.356;6.732;2022-12-20T05:39:42;12.23;;;6.68;;
66619;SDS011;53484;51.356;6.732;2022-12-20T05:42:08;10.90;;;5.75;;
66619;SDS011;53484;51.356;6.732;2022-12-20T05:44:35;10.43;;;5.47;;
66619;SDS011;53484;51.356;6.732;2022-12-20T05:47:01;13.13;;;6.82;;
66619;SDS011;53484;51.356;6.732;2022-12-20T05:49:27;13.83;;;5.50;;
66619;SDS011;53484;51.356;6.732;2022-12-20T05:51:53;13.27;;;6.00;;
66619;SDS011;53484;51.356;6.732;2022-12-20T05:54:21;10.00;;;5.90;;
66619;SDS011;53484;51.356;6.732;2022-12-20T05:56:49;10.55;;;5.25;;
66619;SDS011;53484;51.356;6.732;2022-12-20T05:59:15;11.05;;;5.97;;
66619;SDS011;53484;51.356;6.732;2022-12-20T06:01:42;12.07;;;5.40;;
66619;SDS011;53484;51.356;6.732;2022-12-20T06:04:09;12.13;;;5.82;;
66619;SDS011;53484;51.356;6.732;2022-12-20T06:06:36;10.18;;;5.07;;
66619;SDS011;53484;51.356;6.732;2022-12-20T06:09:03;11.82;;;5.60;;
66619;SDS011;53484;51.356;6.732;2022-12-20T06:11:31;9.43;;;4.95;;
66619;SDS011;53484;51.356;6.732;2022-12-20T06:13:57;11.10;;;5.10;;
66619;SDS011;53484;51.356;6.732;2022-12-20T06:16:24;7.60;;;4.15;;
66619;SDS011;53484;51.356;6.732;2022-12-20T06:18:50;9.18;;;4.50;;
66619;SDS011;53484;51.356;6.732;2022-12-20T06:21:17;11.70;;;5.05;;
66619;SDS011;53484;51.356;6.732;2022-12-20T06:23:43;7.45;;;4.55;;
66619;SDS011;53484;51.356;6.732;2022-12-20T06:26:10;10.23;;;4.50;;
66619;SDS011;53484;51.356;6.732;2022-12-20T06:28:37;10.93;;;4.38;;
66619;SDS011;53484;51.356;6.732;2022-12-20T06:31:07;10.82;;;5.45;;
66619;SDS011;53484;51.356;6.732;2022-12-20T06:33:33;8.70;;;4.85;;
66619;SDS011;53484;51.356;6.732;2022-12-20T06:36:00;9.82;;;4.00;;
66619;SDS011;53484;51.356;6.732;2022-12-20T06:38:26;9.27;;;4.43;;
66619;SDS011;53484;51.356;6.732;2022-12-20T06:40:52;9.57;;;4.05;;
66619;SDS011;53484;51.356;6.732;2022-12-20T06:43:18;9.13;;;4.63;;
66619;SDS011;53484;51.356;6.732;2022-12-20T06:45:46;7.35;;;3.72;;
66619;SDS011;53484;51.356;6.732;2022-12-20T06:48:13;13.95;;;4.10;;
66619;SDS011;53484;51.356;6.732;2022-12-20T06:50:39;8.77;;;4.00;;
66619;SDS011;53484;51.356;6.732;2022-12-20T06:53:05;8.35;;;4.03;;
66619;SDS011;53484;51.356;6.732;2022-12-20T06:55:32;9.02;;;4.60;;
66619;SDS011;53484;51.356;6.732;2022-12-20T06:57:58;7.13;;;4.32;;
66619;SDS011;53484;51.356;6.732;2022-12-20T07:00:24;7.32;;;3.58;;
66619;SDS011;53484;51.356;6.732;2022-12-20T07:02:52;7.83;;;4.03;;
66619;SDS011;53484;51.356;6.732;2022-12-20T07:05:19;9.35;;;4.00;;
66619;SDS011;53484;51.356;6.732;2022-12-20T07:07:45;12.77;;;4.70;;
66619;SDS011;53484;51.356;6.732;2022-12-20T07:10:12;7.68;;;3.92;;
66619;SDS011;53484;51.356;6.732;2022-12-20T07:12:38;8.85;;;4.45;;
66619;SDS011;53484;51.356;6.732;2022-12-20T07:15:05;7.50;;;4.03;;
66619;SDS011;53484;51.356;6.732;2022-12-20T07:17:32;10.07;;;3.88;;
66619;SDS011;53484;51.356;6.732;2022-12-20T07:20:00;10.05;;;4.15;;
66619;SDS011;53484;51.356;6.732;2022-12-20T07:22:26;9.10;;;4.40;;
66619;SDS011;53484;51.356;6.732;2022-12-20T07:24:52;8.45;;;4.10;;
66619;SDS011;53484;51.356;6.732;2022-12-20T07:27:18;9.57;;;3.63;;
66619;SDS011;53484;51.356;6.732;2022-12-20T07:29:45;8.50;;;3.47;;
66619;SDS011;53484;51.356;6.732;2022-12-20T07:32:11;12.35;;;3.80;;
66619;SDS011;53484;51.356;6.732;2022-12-20T07:34:38;9.18;;;3.75;;
66619;SDS011;53484;51.356;6.732;2022-12-20T07:37:06;7.07;;;3.65;;
66619;SDS011;53484;51.356;6.732;2022-12-20T07:39:32;8.70;;;3.40;;
66619;SDS011;53484;51.356;6.732;2022-12-20T07:41:59;7.30;;;3.67;;
66619;SDS011;53484;51.356;6.732;2022-12-20T07:44:25;7.65;;;3.33;;
66619;SDS011;53484;51.356;6.732;2022-12-20T07:46:51;12.68;;;3.97;;
66619;SDS011;53484;51.356;6.732;2022-12-20T07:49:18;8.38;;;3.80;;
66619;SDS011;53484;51.356;6.732;2022-12-20T07:51:44;8.93;;;3.73;;
66619;SDS011;53484;51.356;6.732;2022-12-20T07:54:14;10.57;;;3.80;;
66619;SDS011;53484;51.356;6.732;2022-12-20T07:56:43;8.73;;;3.60;;
66619;SDS011;53484;51.356;6.732;2022-12-20T07:59:11;10.40;;;3.63;;
66619;SDS011;53484;51.356;6.732;2022-12-20T08:01:38;7.47;;;3.30;;
66619;SDS011;53484;51.356;6.732;2022-12-20T08:04:07;6.07;;;3.07;;
66619;SDS011;53484;51.356;6.732;2022-12-20T08:06:35;6.85;;;3.05;;
66619;SDS011;53484;51.356;6.732;2022-12-20T08:09:03;11.32;;;3.70;;
66619;SDS011;53484;51.356;6.732;2022-12-20T08:11:31;8.27;;;3.47;;
66619;SDS011;53484;51.356;6.732;2022-12-20T08:13:58;8.80;;;3.90;;
66619;SDS011;53484;51.356;6.732;2022-12-20T08:16:24;6.30;;;3.00;;
66619;SDS011;53484;51.356;6.732;2022-12-20T08:18:50;6.97;;;3.15;;
66619;SDS011;53484;51.356;6.732;2022-12-20T08:21:17;10.30;;;3.78;;
66619;SDS011;53484;51.356;6.732;2022-12-20T08:23:43;9.80;;;3.60;;
66619;SDS011;53484;51.356;6.732;2022-12-20T08:26:10;7.60;;;3.85;;
66619;SDS011;53484;51.356;6.732;2022-12-20T08:28:37;8.50;;;3.33;;
66619;SDS011;53484;51.356;6.732;2022-12-20T08:31:04;8.60;;;3.55;;
66619;SDS011;53484;51.356;6.732;2022-12-20T08:33:31;6.13;;;3.42;;
66619;SDS011;53484;51.356;6.732;2022-12-20T08:35:59;9.02;;;3.47;;
66619;SDS011;53484;51.356;6.732;2022-12-20T08:38:26;9.35;;;3.50;;
66619;SDS011;53484;51.356;6.732;2022-12-20T08:40:53;7.07;;;3.37;;
66619;SDS011;53484;51.356;6.732;2022-12-20T08:43:21;11.68;;;3.83;;
66619;SDS011;53484;51.356;6.732;2022-12-20T08:45:52;6.82;;;3.35;;
66619;SDS011;53484;51.356;6.732;2022-12-20T08:48:19;6.70;;;3.63;;
66619;SDS011;53484;51.356;6.732;2022-12-20T08:50:45;6.95;;;3.42;;
66619;SDS011;53484;51.356;6.732;2022-12-20T08:53:12;8.03;;;3.20;;
66619;SDS011;53484;51.356;6.732;2022-12-20T08:55:38;7.88;;;3.55;;
66619;SDS011;53484;51.356;6.732;2022-12-20T08:58:05;7.57;;;3.53;;
66619;SDS011;53484;51.356;6.732;2022-12-20T09:00:31;8.38;;;3.10;;
66619;SDS011;53484;51.356;6.732;2022-12-20T09:02:59;7.47;;;3.38;;
66619;SDS011;53484;51.356;6.732;2022-12-20T09:05:25;7.60;;;3.17;;
66619;SDS011;53484;51.356;6.732;2022-12-20T09:07:52;7.72;;;3.40;;
66619;SDS011;53484;51.356;6.732;2022-12-20T09:10:18;7.78;;;3.47;;
66619;SDS011;53484;51.356;6.732;2022-12-20T09:12:45;8.52;;;3.22;;
66619;SDS011;53484;51.356;6.732;2022-12-20T09:15:11;10.23;;;4.10;;
66619;SDS011;53484;51.356;6.732;2022-12-20T09:17:38;7.50;;;3.30;;
66619;SDS011;53484;51.356;6.732;2022-12-20T09:20:06;9.85;;;3.20;;
66619;SDS011;53484;51.356;6.732;2022-12-20T09:22:33;7.53;;;3.63;;
66619;SDS011;53484;51.356;6.732;2022-12-20T09:24:59;10.50;;;3.50;;
66619;SDS011;53484;51.356;6.732;2022-12-20T09:27:26;7.47;;;3.88;;
66619;SDS011;53484;51.356;6.732;2022-12-20T09:29:52;7.53;;;3.50;;
66619;SDS011;53484;51.356;6.732;2022-12-20T09:32:18;7.93;;;3.22;;
66619;SDS011;53484;51.356;6.732;2022-12-20T09:34:45;6.53;;;3.30;;
66619;SDS011;53484;51.356;6.732;2022-12-20T09:37:13;9.50;;;3.38;;
66619;SDS011;53484;51.356;6.732;2022-12-20T09:39:39;9.13;;;3.50;;
66619;SDS011;53484;51.356;6.732;2022-12-20T09:42:06;7.23;;;3.27;;
66619;SDS011;53484;51.356;6.732;2022-12-20T09:44:33;7.72;;;3.20;;
66619;SDS011;53484;51.356;6.732;2022-12-20T09:47:02;6.95;;;3.80;;
66619;SDS011;53484;51.356;6.732;2022-12-20T09:49:30;6.50;;;3.08;;
66619;SDS011;53484;51.356;6.732;2022-12-20T09:52:01;8.15;;;3.60;;
66619;SDS011;53484;51.356;6.732;2022-12-20T09:54:34;7.30;;;3.40;;
66619;SDS011;53484;51.356;6.732;2022-12-20T09:57:11;6.03;;;3.50;;
66619;SDS011;53484;51.356;6.732;2022-12-20T09:59:42;7.53;;;3.45;;
66619;SDS011;53484;51.356;6.732;2022-12-20T10:02:09;8.55;;;3.70;;
66619;SDS011;53484;51.356;6.732;2022-12-20T10:04:36;7.80;;;3.50;;
66619;SDS011;53484;51.356;6.732;2022-12-20T10:07:08;9.47;;;4.27;;
66619;SDS011;53484;51.356;6.732;2022-12-20T10:09:45;6.93;;;3.42;;
66619;SDS011;53484;51.356;6.732;2022-12-20T10:12:17;9.85;;;3.90;;
66619;SDS011;53484;51.356;6.732;2022-12-20T10:14:51;8.65;;;3.40;;
66619;SDS011;53484;51.356;6.732;2022-12-20T10:17:23;8.93;;;3.60;;
66619;SDS011;53484;51.356;6.732;2022-12-20T10:20:12;11.40;;;3.70;;
66619;SDS011;53484;51.356;6.732;2022-12-20T10:22:45;8.45;;;3.60;;
66619;SDS011;53484;51.356;6.732;2022-12-20T10:25:17;9.43;;;3.70;;
66619;SDS011;53484;51.356;6.732;2022-12-20T10:27:44;7.85;;;3.35;;
66619;SDS011;53484;51.356;6.732;2022-12-20T10:30:12;7.15;;;3.42;;
66619;SDS011;53484;51.356;6.732;2022-12-20T10:32:38;9.93;;;3.60;;
66619;SDS011;53484;51.356;6.732;2022-12-20T10:35:14;8.77;;;3.72;;
66619;SDS011;53484;51.356;6.732;2022-12-20T10:37:55;10.35;;;3.88;;
66619;SDS011;53484;51.356;6.732;2022-12-20T10:40:26;7.50;;;3.50;;
66619;SDS011;53484;51.356;6.732;2022-12-20T10:42:52;5.95;;;3.60;;
66619;SDS011;53484;51.356;6.732;2022-12-20T10:45:24;8.37;;;3.47;;
66619;SDS011;53484;51.356;6.732;2022-12-20T10:47:57;7.72;;;3.78;;
66619;SDS011;53484;51.356;6.732;2022-12-20T10:50:24;7.60;;;3.63;;
66619;SDS011;53484;51.356;6.732;2022-12-20T10:53:01;6.20;;;3.20;;
66619;SDS011;53484;51.356;6.732;2022-12-20T10:55:33;8.77;;;4.07;;
66619;SDS011;53484;51.356;6.732;2022-12-20T10:58:01;13.93;;;3.70;;
66619;SDS011;53484;51.356;6.732;2022-12-20T11:00:28;10.07;;;3.50;;
66619;SDS011;53484;51.356;6.732;2022-12-20T11:03:01;7.55;;;3.58;;
66619;SDS011;53484;51.356;6.732;2022-12-20T11:05:27;8.05;;;3.28;;
66619;SDS011;53484;51.356;6.732;2022-12-20T11:07:55;6.70;;;3.40;;
66619;SDS011;53484;51.356;6.732;2022-12-20T11:10:22;9.33;;;3.20;;
66619;SDS011;53484;51.356;6.732;2022-12-20T11:12:52;7.15;;;3.60;;
66619;SDS011;53484;51.356;6.732;2022-12-20T11:15:22;8.50;;;3.72;;
66619;SDS011;53484;51.356;6.732;2022-12-20T11:17:49;7.15;;;3.20;;
66619;SDS011;53484;51.356;6.732;2022-12-20T11:20:26;6.75;;;3.20;;
66619;SDS011;53484;51.356;6.732;2022-12-20T11:22:59;7.47;;;3.00;;
66619;SDS011;53484;51.356;6.732;2022-12-20T11:25:33;7.10;;;2.92;;
66619;SDS011;53484;51.356;6.732;2022-12-20T11:28:09;9.30;;;3.35;;
66619;SDS011;53484;51.356;6.732;2022-12-20T11:30:42;8.48;;;3.10;;
66619;SDS011;53484;51.356;6.732;2022-12-20T11:33:27;9.07;;;3.28;;
66619;SDS011;53484;51.356;6.732;2022-12-20T11:35:57;7.23;;;2.87;;
66619;SDS011;53484;51.356;6.732;2022-12-20T11:38:30;6.68;;;3.20;;
66619;SDS011;53484;51.356;6.732;2022-12-20T11:41:07;6.85;;;3.30;;
66619;SDS011;53484;51.356;6.732;2022-12-20T11:43:40;8.00;;;3.15;;
66619;SDS011;53484;51.356;6.732;2022-12-20T11:46:16;9.25;;;3.60;;
66619;SDS011;53484;51.356;6.732;2022-12-20T11:48:52;5.87;;;2.80;;
66619;SDS011;53484;51.356;6.732;2022-12-20T11:51:21;7.78;;;3.20;;
66619;SDS011;53484;51.356;6.732;2022-12-20T11:53:49;7.55;;;3.38;;
66619;SDS011;53484;51.356;6.732;2022-12-20T11:56:21;13.40;;;3.75;;
66619;SDS011;53484;51.356;6.732;2022-12-20T11:58:51;7.82;;;3.50;;
66619;SDS011;53484;51.356;6.732;2022-12-20T12:01:20;6.90;;;3.10;;
66619;SDS011;53484;51.356;6.732;2022-12-20T12:03:50;5.75;;;3.20;;
66619;SDS011;53484;51.356;6.732;2022-12-20T12:06:21;6.90;;;3.03;;
66619;SDS011;53484;51.356;6.732;2022-12-20T12:08:49;5.80;;;3.00;;
66619;SDS011;53484;51.356;6.732;2022-12-20T12:11:18;6.32;;;2.75;;
66619;SDS011;53484;51.356;6.732;2022-12-20T12:13:45;6.80;;;2.70;;
66619;SDS011;53484;51.356;6.732;2022-12-20T12:16:15;8.25;;;3.05;;
66619;SDS011;53484;51.356;6.732;2022-12-20T12:18:42;7.53;;;3.60;;
66619;SDS011;53484;51.356;6.732;2022-12-20T12:21:10;7.70;;;3.13;;
66619;SDS011;53484;51.356;6.732;2022-12-20T12:23:41;7.97;;;3.28;;
66619;SDS011;53484;51.356;6.732;2022-12-20T12:26:11;7.17;;;3.37;;
66619;SDS011;53484;51.356;6.732;2022-12-20T12:28:38;9.57;;;2.63;;
66619;SDS011;53484;51.356;6.732;2022-12-20T12:31:05;7.03;;;2.97;;
66619;SDS011;53484;51.356;6.732;2022-12-20T12:33:36;6.03;;;2.90;;
66619;SDS011;53484;51.356;6.732;2022-12-20T12:36:22;7.68;;;2.95;;
66619;SDS011;53484;51.356;6.732;2022-12-20T12:38:57;9.33;;;3.30;;
66619;SDS011;53484;51.356;6.732;2022-12-20T12:41:30;10.98;;;2.72;;
66619;SDS011;53484;51.356;6.732;2022-12-20T12:44:01;8.50;;;2.80;;
66619;SDS011;53484;51.356;6.732;2022-12-20T12:46:30;7.47;;;3.10;;
66619;SDS011;53484;51.356;6.732;2022-12-20T12:49:00;10.60;;;3.00;;
66619;SDS011;53484;51.356;6.732;2022-12-20T12:51:30;5.83;;;3.17;;
66619;SDS011;53484;51.356;6.732;2022-12-20T12:54:12;8.13;;;3.22;;
66619;SDS011;53484;51.356;6.732;2022-12-20T12:56:42;8.93;;;3.08;;
66619;SDS011;53484;51.356;6.732;2022-12-20T12:59:21;6.10;;;2.28;;
66619;SDS011;53484;51.356;6.732;2022-12-20T13:01:49;7.97;;;2.45;;
66619;SDS011;53484;51.356;6.732;2022-12-20T13:04:25;6.33;;;2.30;;
66619;SDS011;53484;51.356;6.732;2022-12-20T13:06:56;7.55;;;2.72;;
66619;SDS011;53484;51.356;6.732;2022-12-20T13:09:39;7.28;;;2.38;;
66619;SDS011;53484;51.356;6.732;2022-12-20T13:14:50;6.88;;;2.90;;
66619;SDS011;53484;51.356;6.732;2022-12-20T13:20:14;5.63;;;2.78;;
66619;SDS011;53484;51.356;6.732;2022-12-20T13:22:41;7.07;;;2.92;;
66619;SDS011;53484;51.356;6.732;2022-12-20T13:25:27;5.18;;;2.17;;
66619;SDS011;53484;51.356;6.732;2022-12-20T13:28:02;6.00;;;2.75;;
66619;SDS011;53484;51.356;6.732;2022-12-20T13:31:28;8.13;;;2.80;;
66619;SDS011;53484;51.356;6.732;2022-12-20T13:33:38;8.93;;;3.05;;
66619;SDS011;53484;51.356;6.732;2022-12-20T13:38:53;6.38;;;2.92;;
66619;SDS011;53484;51.356;6.732;2022-12-20T13:41:22;6.90;;;3.03;;
66619;SDS011;53484;51.356;6.732;2022-12-20T13:43:50;6.97;;;2.70;;
66619;SDS011;53484;51.356;6.732;2022-12-20T13:46:18;8.05;;;2.75;;
66619;SDS011;53484;51.356;6.732;2022-12-20T13:48:48;7.82;;;2.90;;
66619;SDS011;53484;51.356;6.732;2022-12-20T13:51:15;6.93;;;2.90;;
66619;SDS011;53484;51.356;6.732;2022-12-20T13:53:47;8.98;;;3.20;;
66619;SDS011;53484;51.356;6.732;2022-12-20T13:56:32;8.10;;;3.53;;
66619;SDS011;53484;51.356;6.732;2022-12-20T13:59:02;8.75;;;3.45;;
66619;SDS011;53484;51.356;6.732;2022-12-20T14:01:29;13.13;;;4.22;;
66619;SDS011;53484;51.356;6.732;2022-12-20T14:03:56;8.23;;;3.70;;
66619;SDS011;53484;51.356;6.732;2022-12-20T14:06:23;8.65;;;3.85;;
66619;SDS011;53484;51.356;6.732;2022-12-20T14:08:50;12.07;;;5.30;;
66619;SDS011;53484;51.356;6.732;2022-12-20T14:11:18;7.32;;;3.60;;
66619;SDS011;53484;51.356;6.732;2022-12-20T14:13:51;9.70;;;4.10;;
66619;SDS011;53484;51.356;6.732;2022-12-20T14:16:18;12.27;;;3.55;;
66619;SDS011;53484;51.356;6.732;2022-12-20T14:18:48;7.60;;;3.22;;
66619;SDS011;53484;51.356;6.732;2022-12-20T14:21:14;10.83;;;3.40;;
66619;SDS011;53484;51.356;6.732;2022-12-20T14:23:41;9.18;;;3.60;;
66619;SDS011;53484;51.356;6.732;2022-12-20T14:26:09;8.70;;;3.40;;
66619;SDS011;53484;51.356;6.732;2022-12-20T14:28:36;10.00;;;3.20;;
66619;SDS011;53484;51.356;6.732;2022-12-20T14:31:05;9.18;;;3.55;;
66619;SDS011;53484;51.356;6.732;2022-12-20T14:33:33;9.37;;;3.57;;
66619;SDS011;53484;51.356;6.732;2022-12-20T14:36:07;7.03;;;3.70;;
66619;SDS011;53484;51.356;6.732;2022-12-20T14:38:33;6.43;;;3.58;;
66619;SDS011;53484;51.356;6.732;2022-12-20T14:40:59;8.38;;;3.60;;
66619;SDS011;53484;51.356;6.732;2022-12-20T14:43:27;11.20;;;3.92;;
66619;SDS011;53484;51.356;6.732;2022-12-20T14:46:18;7.93;;;3.60;;
66619;SDS011;53484;51.356;6.732;2022-12-20T14:48:44;9.80;;;4.70;;
66619;SDS011;53484;51.356;6.732;2022-12-20T14:51:11;7.55;;;3.80;;
66619;SDS011;53484;51.356;6.732;2022-12-20T14:53:38;7.47;;;3.63;;
66619;SDS011;53484;51.356;6.732;2022-12-20T14:56:05;12.63;;;5.10;;
66619;SDS011;53484;51.356;6.732;2022-12-20T14:58:38;12.30;;;4.40;;
66619;SDS011;53484;51.356;6.732;2022-12-20T15:01:15;14.18;;;5.38;;
66619;SDS011;53484;51.356;6.732;2022-12-20T15:03:48;10.48;;;5.25;;
66619;SDS011;53484;51.356;6.732;2022-12-20T15:06:30;11.43;;;4.93;;